Time;durP1;ratioP1;P1;durP2;ratioP2;P2;SDS_P1;SDS_P2;PMS_P1;PMS_P2;Temp;Humidity;BMP_temperature;BMP_pressure;BME280_temperature;BME280_humidity;BME280_pressure;Samples;Min_cycle;Max_cycle;Signal;HPM_P1;HPM_P2
2021/01/22 00:01:21;;;;;;;5.00;4.50;;;3.90;99.90;;;;;;4128070;28;20038;-74
2021/01/22 00:03:21;;;;;;;5.35;4.82;;;4.00;99.90;;;;;;4113429;28;20613;-73
2021/01/22 00:05:22;;;;;;;3.85;3.45;;;3.80;99.90;;;;;;4113216;28;20035;-72
2021/01/22 00:07:23;;;;;;;3.95;3.58;;;3.80;99.90;;;;;;4112322;28;20055;-74
2021/01/22 00:09:23;;;;;;;6.47;3.53;;;3.80;99.90;;;;;;4113526;28;20089;-73
2021/01/22 00:11:24;;;;;;;5.93;3.30;;;3.70;99.90;;;;;;4113431;28;20486;-72
2021/01/22 00:13:24;;;;;;;3.42;3.03;;;3.70;99.90;;;;;;4113355;28;20023;-73
2021/01/22 00:15:25;;;;;;;7.55;3.67;;;3.60;99.90;;;;;;4113250;28;20030;-73
2021/01/22 00:17:26;;;;;;;3.85;3.53;;;3.60;99.90;;;;;;4113508;28;20072;-74
2021/01/22 00:19:26;;;;;;;3.75;3.33;;;3.60;99.90;;;;;;4111941;28;20549;-74
2021/01/22 00:21:27;;;;;;;3.72;3.40;;;3.60;99.90;;;;;;4111896;28;20422;-73
2021/01/22 00:23:29;;;;;;;3.88;3.35;;;3.50;99.90;;;;;;4113107;28;20082;-74
2021/01/22 00:25:29;;;;;;;4.07;3.67;;;3.50;99.90;;;;;;4113430;28;20035;-74
2021/01/22 00:27:30;;;;;;;3.40;3.08;;;3.60;99.90;;;;;;4112244;28;20081;-74
2021/01/22 00:29:31;;;;;;;5.60;3.58;;;3.60;99.90;;;;;;4111196;28;20037;-74
2021/01/22 00:31:31;;;;;;;3.42;3.13;;;3.50;99.90;;;;;;4113208;28;20031;-74
2021/01/22 00:33:32;;;;;;;6.13;3.35;;;3.60;99.90;;;;;;4113066;28;20434;-73
2021/01/22 00:35:33;;;;;;;3.45;3.15;;;3.60;99.90;;;;;;4113426;28;20037;-74
2021/01/22 00:37:33;;;;;;;3.70;3.40;;;3.60;99.90;;;;;;4112611;28;20505;-74
2021/01/22 00:39:34;;;;;;;3.55;3.25;;;3.60;99.90;;;;;;4111644;28;20114;-74
2021/01/22 00:41:34;;;;;;;4.28;3.25;;;3.60;99.90;;;;;;4113191;28;20039;-74
2021/01/22 00:43:35;;;;;;;4.03;3.40;;;3.60;99.90;;;;;;4111675;28;20069;-74
2021/01/22 00:45:36;;;;;;;4.97;3.97;;;3.50;99.90;;;;;;4113489;28;20483;-74
2021/01/22 00:47:36;;;;;;;5.07;3.58;;;3.50;99.90;;;;;;4114401;28;20117;-73
2021/01/22 00:49:37;;;;;;;4.30;3.75;;;3.50;99.90;;;;;;4116106;28;20100;-74
2021/01/22 00:51:37;;;;;;;8.10;4.43;;;3.60;99.90;;;;;;4116216;28;20084;-73
2021/01/22 00:53:39;;;;;;;4.30;3.90;;;3.50;99.90;;;;;;4114686;28;20098;-74
2021/01/22 00:55:40;;;;;;;5.72;4.65;;;3.50;99.90;;;;;;4114271;28;20031;-74
2021/01/22 00:57:40;;;;;;;7.22;4.30;;;3.50;99.90;;;;;;4114915;28;20053;-74
2021/01/22 00:59:42;;;;;;;5.70;4.00;;;3.50;99.90;;;;;;4115967;28;20055;-74
2021/01/22 01:01:43;;;;;;;5.70;4.20;;;3.50;99.90;;;;;;4115800;28;20089;-74
2021/01/22 01:03:43;;;;;;;8.10;4.53;;;3.60;99.90;;;;;;4116222;28;20035;-74
2021/01/22 01:05:44;;;;;;;3.88;3.38;;;3.50;99.90;;;;;;4115931;28;20122;-73
2021/01/22 01:07:44;;;;;;;4.53;3.60;;;3.60;99.90;;;;;;4116037;28;20038;-73
2021/01/22 01:09:45;;;;;;;9.02;4.72;;;3.50;99.90;;;;;;4114821;28;20037;-74
2021/01/22 01:11:45;;;;;;;6.40;5.10;;;3.50;99.90;;;;;;4115893;28;20034;-74
2021/01/22 01:13:46;;;;;;;6.28;4.65;;;3.50;99.90;;;;;;4115993;28;20027;-74
2021/01/22 01:15:47;;;;;;;7.70;5.10;;;3.50;99.90;;;;;;4115276;28;20086;-74
2021/01/22 01:17:47;;;;;;;9.13;3.83;;;3.50;99.90;;;;;;4114092;28;20027;-74
2021/01/22 01:19:48;;;;;;;6.00;4.90;;;3.60;99.90;;;;;;4110866;28;20027;-74
2021/01/22 01:21:48;;;;;;;6.85;4.68;;;3.60;99.90;;;;;;4121749;28;20473;-73
2021/01/22 01:23:49;;;;;;;8.57;5.07;;;3.60;99.90;;;;;;4114503;28;20023;-74
2021/01/22 01:25:49;;;;;;;7.22;4.55;;;3.60;99.90;;;;;;4112561;28;20037;-74
2021/01/22 01:27:50;;;;;;;9.10;5.00;;;3.60;99.90;;;;;;4114280;28;20034;-75
2021/01/22 01:29:50;;;;;;;5.22;4.68;;;3.60;99.90;;;;;;4113659;28;20023;-74
2021/01/22 01:31:51;;;;;;;4.63;4.13;;;3.50;99.90;;;;;;4112346;28;20133;-74
2021/01/22 01:33:52;;;;;;;9.82;4.68;;;3.60;99.90;;;;;;4114309;28;20018;-74
2021/01/22 01:35:53;;;;;;;6.82;4.53;;;3.50;99.90;;;;;;4113667;28;20077;-74
2021/01/22 01:37:53;;;;;;;8.35;4.90;;;3.50;99.90;;;;;;4114214;28;20026;-74
2021/01/22 01:39:54;;;;;;;8.30;5.05;;;3.50;99.90;;;;;;4114885;28;20031;-74
2021/01/22 01:41:55;;;;;;;12.65;7.63;;;3.50;99.90;;;;;;4115774;28;20118;-73
2021/01/22 01:43:55;;;;;;;7.07;5.07;;;3.50;99.90;;;;;;4115791;28;20053;-74
2021/01/22 01:45:57;;;;;;;8.20;6.38;;;3.40;99.90;;;;;;4115570;28;20030;-74
2021/01/22 01:47:58;;;;;;;9.60;6.65;;;3.40;99.90;;;;;;4114242;28;20550;-74
2021/01/22 01:49:59;;;;;;;12.88;6.45;;;3.40;99.90;;;;;;4115433;28;20130;-73
2021/01/22 01:52:00;;;;;;;9.40;5.90;;;3.50;99.90;;;;;;4115455;28;20406;-73
2021/01/22 01:54:01;;;;;;;9.45;6.57;;;3.60;99.90;;;;;;4114394;28;20022;-74
2021/01/22 01:56:01;;;;;;;10.00;7.03;;;3.60;99.90;;;;;;4113398;28;20118;-73
2021/01/22 01:58:04;;;;;;;12.23;6.07;;;3.60;99.90;;;;;;4115144;28;20158;-74
2021/01/22 02:00:05;;;;;;;9.15;7.90;;;3.60;99.90;;;;;;4115128;28;20510;-73
2021/01/22 02:02:06;;;;;;;12.25;6.88;;;3.60;99.90;;;;;;4114927;28;20093;-73
2021/01/22 02:04:07;;;;;;;9.68;7.95;;;3.70;99.90;;;;;;4130105;28;20031;-74
2021/01/22 02:06:07;;;;;;;10.95;8.45;;;3.60;99.90;;;;;;4115045;28;20026;-74
2021/01/22 02:08:08;;;;;;;14.90;9.00;;;3.50;99.90;;;;;;4115049;28;20363;-74
2021/01/22 02:10:10;;;;;;;18.58;10.50;;;3.50;99.90;;;;;;4115538;28;20029;-74
2021/01/22 02:12:11;;;;;;;15.10;9.00;;;3.50;99.90;;;;;;4115156;28;20027;-74
2021/01/22 02:14:12;;;;;;;13.82;8.68;;;3.50;99.90;;;;;;4114975;28;20034;-74
2021/01/22 02:16:13;;;;;;;17.02;10.27;;;3.60;99.90;;;;;;4115099;28;20027;-73
2021/01/22 02:18:14;;;;;;;19.05;10.02;;;3.60;99.90;;;;;;4113520;28;20113;-74
2021/01/22 02:20:23;;;;;;;24.95;12.60;;;3.60;99.90;;;;;;4114600;28;20082;-74
2021/01/22 02:22:24;;;;;;;24.88;11.57;;;3.50;99.90;;;;;;4114530;28;20030;-74
2021/01/22 02:24:26;;;;;;;23.17;11.85;;;3.60;99.90;;;;;;4113856;28;20098;-74
2021/01/22 02:26:29;;;;;;;20.25;12.60;;;3.60;99.90;;;;;;4114953;28;20030;-73
2021/01/22 02:28:30;;;;;;;;;;;3.60;99.90;;;;;;4113354;28;20058;-73
2021/01/22 02:30:31;;;;;;;22.33;11.07;;;3.50;99.90;;;;;;4129532;28;19910;-74
2021/01/22 02:32:35;;;;;;;28.25;12.70;;;3.50;99.90;;;;;;4114312;28;20035;-74
2021/01/22 02:34:39;;;;;;;25.40;12.57;;;3.40;99.90;;;;;;4114834;28;20505;-74
2021/01/22 02:36:43;;;;;;;21.33;12.30;;;3.50;99.90;;;;;;4114737;28;20114;-74
2021/01/22 02:38:46;;;;;;;19.75;10.57;;;3.40;99.90;;;;;;4114029;28;20109;-74
2021/01/22 02:40:48;;;;;;;21.42;11.52;;;3.40;99.90;;;;;;4113225;28;20034;-74
2021/01/22 02:42:50;;;;;;;30.20;14.45;;;3.40;99.90;;;;;;4112695;28;20041;-74
2021/01/22 02:44:54;;;;;;;25.80;14.02;;;3.30;99.90;;;;;;4113511;28;20043;-74
2021/01/22 02:46:57;;;;;;;23.38;13.10;;;3.40;99.90;;;;;;4117071;28;20503;-74
2021/01/22 02:48:58;;;;;;;27.50;14.15;;;3.30;99.90;;;;;;4114344;28;20057;-73
2021/01/22 02:50:59;;;;;;;28.77;14.23;;;3.30;99.90;;;;;;4112927;28;20035;-74
2021/01/22 02:53:03;;;;;;;24.92;13.07;;;3.30;99.90;;;;;;4114657;28;20121;-74
2021/01/22 02:55:06;;;;;;;25.85;14.57;;;3.30;99.90;;;;;;4114293;28;20117;-74
2021/01/22 02:57:31;;;;;;;31.67;15.45;;;3.20;99.90;;;;;;4114400;28;20058;-74
2021/01/22 02:59:41;;;;;;;19.38;12.68;;;3.30;99.90;;;;;;4114197;28;20434;-74
2021/01/22 03:02:08;;;;;;;25.13;13.90;;;3.20;99.90;;;;;;4111624;28;20053;-73
2021/01/22 03:04:12;;;;;;;23.85;13.75;;;3.20;99.90;;;;;;4102295;28;20027;-74
2021/01/22 03:06:32;;;;;;;22.70;15.38;;;3.20;99.90;;;;;;4114092;28;20430;-74
2021/01/22 03:08:36;;;;;;;21.63;13.73;;;3.10;99.90;;;;;;4114439;28;20046;-75
2021/01/22 03:10:37;;;;;;;21.13;14.38;;;3.10;99.90;;;;;;4113848;28;20090;-75
2021/01/22 03:12:39;;;;;;;24.27;16.00;;;3.10;99.90;;;;;;4113978;28;20530;-75
2021/01/22 03:14:41;;;;;;;22.15;13.77;;;3.10;99.90;;;;;;4112452;28;20034;-75
2021/01/22 03:16:42;;;;;;;26.52;15.60;;;3.00;99.90;;;;;;4114149;28;20035;-74
2021/01/22 03:19:00;;;;;;;18.63;12.63;;;3.20;99.90;;;;;;4113798;28;20027;-74
2021/01/22 03:21:10;;;;;;;26.10;14.20;;;3.20;99.90;;;;;;4114326;28;20063;-74
2021/01/22 03:23:12;;;;;;;29.00;13.63;;;3.20;99.90;;;;;;4113260;28;20027;-74
2021/01/22 03:25:13;;;;;;;18.15;11.75;;;3.10;99.90;;;;;;4113979;28;20034;-74
2021/01/22 03:27:15;;;;;;;21.02;12.13;;;3.10;99.90;;;;;;4113858;28;20453;-74
2021/01/22 03:29:16;;;;;;;15.80;9.50;;;3.00;99.90;;;;;;4113571;28;20042;-74
2021/01/22 03:31:17;;;;;;;14.10;8.82;;;3.00;99.90;;;;;;4113534;28;20039;-75
2021/01/22 03:33:18;;;;;;;12.27;7.97;;;3.00;99.90;;;;;;4112503;28;20118;-74
2021/01/22 03:35:19;;;;;;;9.65;6.45;;;2.90;99.90;;;;;;4112754;28;20511;-74
2021/01/22 03:37:19;;;;;;;9.43;6.65;;;2.90;99.90;;;;;;4114108;28;20046;-74
2021/01/22 03:39:21;;;;;;;12.10;5.88;;;2.90;99.90;;;;;;4113776;28;20046;-75
2021/01/22 03:41:22;;;;;;;7.45;4.97;;;2.90;99.90;;;;;;4112389;28;20058;-74
2021/01/22 03:43:22;;;;;;;7.82;4.85;;;3.00;99.90;;;;;;4113659;28;20529;-75
2021/01/22 03:45:23;;;;;;;6.82;4.55;;;3.00;99.90;;;;;;4113620;28;20038;-75
2021/01/22 03:47:23;;;;;;;6.57;3.42;;;2.90;99.90;;;;;;4113734;28;20109;-74
2021/01/22 03:49:24;;;;;;;4.45;3.35;;;3.00;99.90;;;;;;4113482;28;20066;-74
2021/01/22 03:51:25;;;;;;;8.52;4.32;;;3.00;99.90;;;;;;4113687;28;20022;-74
2021/01/22 03:53:25;;;;;;;7.50;3.63;;;3.00;99.90;;;;;;4112409;28;20031;-74
2021/01/22 03:55:26;;;;;;;6.28;3.70;;;3.00;99.90;;;;;;4112799;28;20035;-75
2021/01/22 03:57:27;;;;;;;5.07;3.83;;;3.00;99.90;;;;;;4113383;28;20026;-74
2021/01/22 03:59:27;;;;;;;8.35;3.90;;;2.90;99.90;;;;;;4111979;28;20057;-74
2021/01/22 04:01:29;;;;;;;7.88;3.67;;;2.90;99.90;;;;;;4113448;28;20026;-74
2021/01/22 04:03:29;;;;;;;5.72;4.57;;;2.90;99.90;;;;;;4113448;28;20681;-74
2021/01/22 04:05:31;;;;;;;10.52;4.82;;;2.90;99.90;;;;;;4112117;28;20108;-74
2021/01/22 04:07:32;;;;;;;13.18;5.53;;;2.90;99.90;;;;;;4127974;28;20106;-74
2021/01/22 04:09:32;;;;;;;5.97;4.72;;;2.90;99.90;;;;;;4113460;28;20030;-74
2021/01/22 04:11:33;;;;;;;12.15;5.85;;;2.90;99.90;;;;;;4113474;28;20039;-75
2021/01/22 04:13:34;;;;;;;9.05;6.13;;;2.90;99.90;;;;;;4111879;28;20434;-74
2021/01/22 04:15:34;;;;;;;13.10;7.13;;;2.90;99.90;;;;;;4113092;28;20027;-74
2021/01/22 04:17:35;;;;;;;9.35;6.20;;;2.90;99.90;;;;;;4113543;28;20031;-74
2021/01/22 04:19:36;;;;;;;14.38;6.40;;;2.80;99.90;;;;;;4113268;28;20049;-74
2021/01/22 04:21:36;;;;;;;16.98;6.90;;;2.80;99.90;;;;;;4112626;28;20035;-74
2021/01/22 04:23:37;;;;;;;16.35;8.13;;;2.80;99.90;;;;;;4113034;28;20030;-75
2021/01/22 04:25:38;;;;;;;21.42;7.60;;;2.80;99.90;;;;;;4111588;28;20113;-74
2021/01/22 04:27:39;;;;;;;16.10;7.88;;;2.70;99.90;;;;;;4113369;28;20487;-74
2021/01/22 04:29:39;;;;;;;15.20;7.93;;;2.80;99.90;;;;;;4111526;28;20054;-75
2021/01/22 04:31:40;;;;;;;11.35;6.35;;;2.70;99.90;;;;;;4113150;28;20030;-75
2021/01/22 04:33:41;;;;;;;13.13;8.48;;;2.80;99.90;;;;;;4112050;28;20110;-74
2021/01/22 04:35:42;;;;;;;9.40;5.97;;;2.80;99.90;;;;;;4112983;28;20331;-74
2021/01/22 04:37:44;;;;;;;15.18;8.30;;;2.90;99.90;;;;;;4111565;28;20425;-74
2021/01/22 04:39:44;;;;;;;17.08;8.68;;;2.90;99.90;;;;;;4113159;28;20430;-74
2021/01/22 04:41:46;;;;;;;15.27;9.30;;;2.90;99.90;;;;;;4112874;28;20054;-74
2021/01/22 04:43:46;;;;;;;9.85;5.15;;;2.90;99.90;;;;;;4111682;28;20549;-74
2021/01/22 04:45:48;;;;;;;21.60;9.52;;;2.90;99.90;;;;;;4113129;28;20023;-75
2021/01/22 04:47:48;;;;;;;22.15;10.07;;;2.90;99.90;;;;;;4113315;28;20073;-74
2021/01/22 04:49:51;;;;;;;18.83;10.35;;;2.90;99.90;;;;;;4111536;28;20403;-74
2021/01/22 04:51:54;;;;;;;22.73;11.67;;;2.90;99.90;;;;;;4112503;28;20113;-74
2021/01/22 04:53:56;;;;;;;;;;;2.90;99.90;;;;;;4113192;28;20090;-75
2021/01/22 04:55:58;;;;;;;21.25;11.02;;;3.00;99.90;;;;;;4113102;28;19911;-74
2021/01/22 04:58:02;;;;;;;24.75;11.15;;;3.00;99.90;;;;;;4113047;28;20054;-74
2021/01/22 05:00:04;;;;;;;14.63;8.57;;;2.90;99.90;;;;;;4111167;28;20023;-74
2021/01/22 05:02:05;;;;;;;27.10;13.43;;;2.80;99.90;;;;;;4111332;28;20113;-75
2021/01/22 05:04:06;;;;;;;27.10;14.50;;;2.90;99.90;;;;;;4112814;28;20115;-75
2021/01/22 05:06:07;;;;;;;28.15;13.18;;;2.80;99.90;;;;;;4112408;28;20399;-75
2021/01/22 05:08:07;;;;;;;35.70;15.45;;;2.80;99.90;;;;;;4111744;28;20565;-75
2021/01/22 05:10:08;;;;;;;30.88;16.30;;;2.90;99.90;;;;;;4113127;28;20046;-73
2021/01/22 05:12:09;;;;;;;29.48;16.08;;;2.90;99.90;;;;;;4112611;28;20050;-74
2021/01/22 05:14:10;;;;;;;29.15;15.80;;;2.90;99.90;;;;;;4112977;28;20023;-74
2021/01/22 05:16:16;;;;;;;28.77;17.45;;;2.80;99.90;;;;;;4112710;28;20027;-74
2021/01/22 05:18:17;;;;;;;31.63;16.55;;;2.90;99.90;;;;;;4113030;28;20027;-74
2021/01/22 05:20:36;;;;;;;34.30;16.42;;;3.00;99.90;;;;;;4112330;28;20023;-74
2021/01/22 05:22:38;;;;;;;31.73;18.00;;;3.00;99.90;;;;;;4102304;28;20042;-74
2021/01/22 05:24:39;;;;;;;32.03;17.60;;;3.00;99.90;;;;;;4096058;28;20391;-74
2021/01/22 05:26:41;;;;;;;38.72;18.60;;;3.00;99.90;;;;;;4095336;28;20027;-74
2021/01/22 05:28:43;;;;;;;35.03;18.35;;;3.00;99.90;;;;;;4095119;28;20108;-74
2021/01/22 05:30:55;;;;;;;40.20;17.87;;;2.90;99.90;;;;;;4094319;28;20023;-74
2021/01/22 05:33:15;;;;;;;36.33;17.85;;;2.90;99.90;;;;;;4093848;28;20294;-74
2021/01/22 05:35:31;;;;;;;33.65;16.83;;;2.80;99.90;;;;;;4092568;28;20328;-74
2021/01/22 05:37:32;;;;;;;29.33;17.00;;;2.80;99.90;;;;;;4097588;28;20031;-74
2021/01/22 05:39:33;;;;;;;28.92;15.57;;;2.90;99.90;;;;;;4096449;28;20030;-74
2021/01/22 05:41:33;;;;;;;45.40;19.23;;;2.80;99.90;;;;;;4098714;28;20112;-74
2021/01/22 05:43:38;;;;;;;39.63;20.85;;;2.80;99.90;;;;;;4099572;28;20114;-75
2021/01/22 05:45:46;;;;;;;37.90;18.58;;;2.70;99.90;;;;;;4099659;28;20086;-74
2021/01/22 05:47:47;;;;;;;39.20;18.25;;;2.70;99.90;;;;;;4098241;28;20023;-74
2021/01/22 05:49:58;;;;;;;37.47;19.00;;;2.60;99.90;;;;;;4097268;28;20046;-73
2021/01/22 05:51:59;;;;;;;42.35;20.65;;;2.60;99.90;;;;;;4099338;28;20035;-74
2021/01/22 05:54:00;;;;;;;39.65;20.58;;;2.60;99.90;;;;;;4099462;28;20114;-74
2021/01/22 05:56:05;;;;;;;41.95;19.70;;;2.60;99.90;;;;;;4098281;28;20119;-74
2021/01/22 05:58:06;;;;;;;48.90;21.13;;;2.60;99.90;;;;;;4090084;28;20030;-73
2021/01/22 06:00:14;;;;;;;38.83;20.83;;;2.60;99.90;;;;;;4099236;28;20047;-74
2021/01/22 06:02:33;;;;;;;40.08;21.50;;;2.60;99.90;;;;;;4098039;28;20031;-75
2021/01/22 06:04:34;;;;;;;44.78;21.98;;;2.60;99.90;;;;;;4098214;28;20101;-74
2021/01/22 06:06:35;;;;;;;42.22;22.27;;;2.60;99.90;;;;;;4113884;28;20074;-75
2021/01/22 06:08:57;;;;;;;48.70;22.50;;;2.50;99.90;;;;;;4099233;28;20052;-74
2021/01/22 06:11:00;;;;;;;49.58;21.60;;;2.40;99.90;;;;;;4098997;28;20033;-75
2021/01/22 06:13:03;;;;;;;43.45;23.95;;;2.40;99.90;;;;;;4097792;28;20687;-75
2021/01/22 06:15:04;;;;;;;;;;;2.40;99.90;;;;;;4099395;28;20111;-75
2021/01/22 06:17:06;;;;;;;43.70;21.52;;;2.40;99.90;;;;;;4095868;28;19921;-75
2021/01/22 06:19:08;;;;;;;53.80;24.17;;;2.30;99.90;;;;;;4085508;28;20030;-75
2021/01/22 06:21:36;;;;;;;58.83;24.55;;;2.30;99.90;;;;;;4086036;28;20059;-75
2021/01/22 06:23:37;;;;;;;49.40;22.85;;;2.30;99.90;;;;;;4109640;28;20426;-75
2021/01/22 06:25:40;;;;;;;55.67;25.40;;;2.20;99.90;;;;;;4098385;28;20028;-75
2021/01/22 06:27:42;;;;;;;45.80;23.17;;;2.20;99.90;;;;;;4097244;28;20031;-75
2021/01/22 06:29:44;;;;;;;49.38;23.95;;;2.20;99.90;;;;;;4098393;28;20439;-74
2021/01/22 06:31:45;;;;;;;54.92;26.02;;;2.20;99.90;;;;;;4098489;28;20031;-74
2021/01/22 06:33:48;;;;;;;53.10;26.08;;;2.30;99.90;;;;;;4098440;28;20046;-74
2021/01/22 06:35:50;;;;;;;58.38;29.27;;;2.30;99.90;;;;;;4095373;28;20039;-74
2021/01/22 06:37:52;;;;;;;55.70;24.48;;;2.40;99.90;;;;;;4092967;28;20034;-74
2021/01/22 06:39:53;;;;;;;64.55;27.15;;;2.40;99.90;;;;;;4083657;28;20448;-74
2021/01/22 06:41:55;;;;;;;57.63;28.13;;;2.40;99.90;;;;;;4085040;28;20043;-74
2021/01/22 06:43:59;;;;;;;65.30;29.02;;;2.40;99.90;;;;;;4086818;28;20032;-75
2021/01/22 06:46:02;;;;;;;72.65;33.05;;;2.40;99.90;;;;;;4089515;28;20122;-75
2021/01/22 06:48:06;;;;;;;61.13;25.27;;;2.50;99.90;;;;;;4098406;28;20032;-75
2021/01/22 06:50:21;;;;;;;70.88;30.67;;;2.50;99.90;;;;;;4098230;28;20094;-75
2021/01/22 06:52:22;;;;;;;64.78;31.77;;;2.50;99.90;;;;;;4097181;28;20089;-75
2021/01/22 06:54:24;;;;;;;68.75;32.58;;;2.50;99.90;;;;;;4098087;28;20079;-75
2021/01/22 06:56:25;;;;;;;61.50;27.92;;;2.50;99.90;;;;;;4096920;28;20510;-75
2021/01/22 06:58:27;;;;;;;72.35;34.67;;;2.50;99.90;;;;;;4097227;28;20280;-75
2021/01/22 07:00:45;;;;;;;75.03;35.75;;;2.50;99.90;;;;;;4096966;28;20050;-75
2021/01/22 07:02:45;;;;;;;77.40;37.15;;;2.40;99.90;;;;;;4092707;28;20066;-75
2021/01/22 07:04:46;;;;;;;77.03;37.13;;;2.40;99.90;;;;;;4095630;28;20495;-76
2021/01/22 07:06:51;;;;;;;68.93;28.30;;;2.40;99.90;;;;;;4096580;28;20031;-76
2021/01/22 07:08:54;;;;;;;77.05;35.55;;;2.40;99.90;;;;;;4096996;28;20033;-75
2021/01/22 07:11:00;;;;;;;74.43;34.67;;;2.50;99.90;;;;;;4101744;28;20081;-76
2021/01/22 07:13:01;;;;;;;85.43;38.10;;;2.50;99.90;;;;;;4096308;28;20039;-75
2021/01/22 07:15:25;;;;;;;71.03;35.83;;;2.50;99.90;;;;;;4097551;28;20027;-75
2021/01/22 07:17:30;;;;;;;79.72;36.72;;;2.60;99.90;;;;;;4097195;28;20039;-75
2021/01/22 07:19:31;;;;;;;69.53;34.47;;;2.60;99.90;;;;;;4096241;28;20038;-76
2021/01/22 07:21:44;;;;;;;83.60;38.40;;;2.50;99.90;;;;;;4094426;28;20118;-75
2021/01/22 07:23:46;;;;;;;76.78;37.50;;;2.50;99.90;;;;;;4095964;28;20027;-75
2021/01/22 07:25:55;;;;;;;65.05;34.88;;;2.40;99.90;;;;;;4095704;28;20042;-75
2021/01/22 07:27:56;;;;;;;66.10;32.80;;;2.40;99.90;;;;;;4097374;28;20039;-75
2021/01/22 07:30:13;;;;;;;71.88;35.38;;;2.40;99.90;;;;;;4096490;28;20059;-76
2021/01/22 07:32:27;;;;;;;79.22;34.88;;;2.40;99.90;;;;;;4095154;28;20117;-76
2021/01/22 07:34:36;;;;;;;75.35;33.90;;;2.40;99.90;;;;;;4093898;28;20035;-76
2021/01/22 07:36:50;;;;;;;68.40;35.20;;;2.50;99.90;;;;;;4082994;28;20024;-75
2021/01/22 07:38:51;;;;;;;70.10;35.45;;;2.40;99.90;;;;;;4093861;28;20090;-76
2021/01/22 07:40:51;;;;;;;63.65;31.90;;;2.30;99.90;;;;;;4080382;28;20020;-76
2021/01/22 07:42:52;;;;;;;66.40;30.90;;;2.30;99.90;;;;;;4108726;28;20059;-76
2021/01/22 07:44:54;;;;;;;71.82;33.28;;;2.30;99.90;;;;;;4098252;28;20114;-75
2021/01/22 07:46:55;;;;;;;77.30;35.58;;;2.30;99.90;;;;;;4102176;28;20061;-76
2021/01/22 07:49:09;;;;;;;79.93;34.47;;;2.30;99.90;;;;;;4098970;28;20047;-76
2021/01/22 07:51:29;;;;;;;75.90;35.78;;;2.40;99.90;;;;;;4096024;28;20030;-76
2021/01/22 07:53:29;;;;;;;76.07;33.28;;;2.40;99.90;;;;;;4095197;28;20114;-76
2021/01/22 07:55:30;;;;;;;75.45;36.10;;;2.40;99.90;;;;;;4095377;28;20066;-75
2021/01/22 07:57:31;;;;;;;61.35;34.92;;;2.40;99.90;;;;;;4094321;28;20080;-76
2021/01/22 07:59:32;;;;;;;71.03;35.08;;;2.40;99.90;;;;;;4095682;28;20089;-76
2021/01/22 08:01:33;;;;;;;69.88;33.30;;;2.50;99.90;;;;;;4094322;28;20514;-75
2021/01/22 08:03:43;;;;;;;68.72;32.10;;;2.50;99.90;;;;;;4094095;28;20177;-76
2021/01/22 08:05:45;;;;;;;64.22;30.05;;;2.50;99.90;;;;;;4095436;28;20027;-75
2021/01/22 08:07:46;;;;;;;59.78;31.58;;;2.50;99.90;;;;;;4095378;28;20530;-75
2021/01/22 08:09:52;;;;;;;65.70;32.55;;;2.50;99.90;;;;;;4110678;28;20038;-75
2021/01/22 08:12:06;;;;;;;59.85;31.55;;;2.60;99.90;;;;;;4095177;28;20035;-75
2021/01/22 08:14:07;;;;;;;;;;;2.60;99.90;;;;;;4096987;28;20035;-76
2021/01/22 08:16:08;;;;;;;44.33;22.33;;;2.60;99.90;;;;;;4096740;28;20426;-75
2021/01/22 08:18:08;;;;;;;57.22;30.48;;;2.60;99.90;;;;;;4095593;28;20038;-76
2021/01/22 08:20:10;;;;;;;50.75;27.35;;;2.70;99.90;;;;;;4083012;28;20388;-76
2021/01/22 08:22:15;;;;;;;57.30;33.10;;;2.60;99.90;;;;;;4084609;28;20055;-75
2021/01/22 08:24:16;;;;;;;67.00;32.80;;;2.70;99.90;;;;;;4095153;28;20104;-76
2021/01/22 08:26:16;;;;;;;58.33;31.10;;;2.70;99.90;;;;;;4094460;28;20145;-75
2021/01/22 08:28:24;;;;;;;62.95;29.50;;;2.70;99.90;;;;;;4095389;28;20197;-75
2021/01/22 08:30:26;;;;;;;63.33;30.38;;;2.70;99.90;;;;;;4095242;28;20035;-75
2021/01/22 08:32:29;;;;;;;64.60;29.98;;;2.70;99.90;;;;;;4095137;28;20126;-76
2021/01/22 08:34:30;;;;;;;54.28;24.55;;;2.80;99.90;;;;;;4085573;28;20188;-75
2021/01/22 08:36:31;;;;;;;52.75;28.20;;;2.80;99.90;;;;;;4082301;28;20540;-76
2021/01/22 08:38:32;;;;;;;58.22;28.02;;;2.90;99.90;;;;;;4101835;28;20066;-75
2021/01/22 08:40:41;;;;;;;52.80;30.27;;;2.90;99.90;;;;;;4096662;28;20035;-76
2021/01/22 08:43:00;;;;;;;56.13;29.05;;;2.80;99.90;;;;;;4096717;28;20035;-75
2021/01/22 08:45:03;;;;;;;53.03;28.70;;;2.80;99.90;;;;;;4095211;28;20114;-75
2021/01/22 08:47:08;;;;;;;46.50;26.48;;;2.80;99.90;;;;;;4095120;28;20036;-75
2021/01/22 08:49:13;;;;;;;59.47;29.20;;;2.90;99.90;;;;;;4093712;28;20051;-76
2021/01/22 08:51:14;;;;;;;60.45;28.15;;;2.90;99.90;;;;;;4087336;28;20046;-75
2021/01/22 08:53:15;;;;;;;56.10;29.02;;;2.90;99.90;;;;;;4079620;28;20126;-75
2021/01/22 08:55:22;;;;;;;50.17;23.55;;;2.90;99.90;;;;;;4102467;28;20122;-76
2021/01/22 08:57:24;;;;;;;56.75;28.35;;;2.90;99.90;;;;;;4098601;28;20383;-76
2021/01/22 08:59:25;;;;;;;47.70;28.55;;;2.90;99.90;;;;;;4109231;28;20031;-75
2021/01/22 09:01:47;;;;;;;52.30;27.92;;;2.90;99.90;;;;;;4092278;28;20508;-77
2021/01/22 09:03:48;;;;;;;48.33;24.13;;;3.00;99.90;;;;;;4092003;28;20074;-76
2021/01/22 09:05:53;;;;;;;58.80;27.92;;;3.00;99.90;;;;;;4092462;28;20039;-76
2021/01/22 09:08:12;;;;;;;54.03;28.35;;;3.00;99.90;;;;;;4095415;28;20644;-74
2021/01/22 09:10:21;;;;;;;47.17;25.48;;;3.10;99.90;;;;;;4112322;28;20031;-75
2021/01/22 09:12:26;;;;;;;47.85;25.10;;;3.20;99.90;;;;;;4109092;28;20118;-75
2021/01/22 09:14:27;;;;;;;61.55;30.30;;;3.20;99.90;;;;;;4095520;28;20153;-75
2021/01/22 09:16:27;;;;;;;53.25;25.08;;;3.20;99.90;;;;;;4094275;28;20039;-75
2021/01/22 09:18:28;;;;;;;54.58;25.90;;;3.30;99.90;;;;;;4096549;28;20038;-75
2021/01/22 09:20:29;;;;;;;52.63;27.38;;;3.30;99.90;;;;;;4097560;28;20114;-76
2021/01/22 09:22:31;;;;;;;41.83;24.92;;;3.30;99.90;;;;;;4096271;28;20051;-76
2021/01/22 09:24:31;;;;;;;50.53;28.25;;;3.40;99.90;;;;;;4078740;28;20065;-76
2021/01/22 09:26:32;;;;;;;56.88;27.63;;;3.40;99.90;;;;;;4109449;28;20090;-76
2021/01/22 09:28:33;;;;;;;44.08;24.95;;;3.40;99.90;;;;;;4097188;28;20027;-76
2021/01/22 09:30:35;;;;;;;50.03;28.42;;;3.40;99.90;;;;;;4098229;28;20363;-76
2021/01/22 09:32:35;;;;;;;52.60;25.42;;;3.40;99.90;;;;;;4096968;28;20058;-76
2021/01/22 09:34:36;;;;;;;47.47;24.70;;;3.50;99.90;;;;;;4098157;28;20065;-76
2021/01/22 09:36:37;;;;;;;43.85;25.10;;;3.50;99.90;;;;;;4100534;28;20391;-76
2021/01/22 09:38:37;;;;;;;44.45;25.17;;;3.50;99.90;;;;;;4100395;28;20031;-75
2021/01/22 09:40:38;;;;;;;38.30;23.02;;;3.50;99.90;;;;;;4096596;28;20027;-76
2021/01/22 09:42:38;;;;;;;46.83;22.98;;;3.60;99.90;;;;;;4093728;28;20112;-76
2021/01/22 09:44:39;;;;;;;43.10;23.02;;;3.60;99.90;;;;;;4098970;28;20118;-76
2021/01/22 09:46:40;;;;;;;39.83;22.25;;;3.70;99.90;;;;;;4097347;28;20019;-76
2021/01/22 09:48:40;;;;;;;43.72;23.08;;;3.80;99.90;;;;;;4098538;28;20680;-76
2021/01/22 09:50:41;;;;;;;45.10;22.38;;;3.80;99.90;;;;;;4096473;28;20085;-76
2021/01/22 09:52:42;;;;;;;48.85;23.95;;;3.90;99.90;;;;;;4095964;28;20638;-76
2021/01/22 09:54:45;;;;;;;36.47;22.48;;;3.90;99.90;;;;;;4098199;28;20043;-76
2021/01/22 09:56:46;;;;;;;37.63;18.70;;;4.00;99.90;;;;;;4106218;28;20061;-76
2021/01/22 09:58:46;;;;;;;38.58;19.17;;;4.10;99.90;;;;;;4113620;28;20026;-77
2021/01/22 10:00:47;;;;;;;34.08;20.75;;;4.20;99.90;;;;;;4112295;28;20122;-77
2021/01/22 10:02:47;;;;;;;36.13;18.38;;;4.20;99.90;;;;;;4111489;28;20031;-77
2021/01/22 10:04:48;;;;;;;31.48;17.85;;;4.30;99.90;;;;;;4113073;28;20037;-78
2021/01/22 10:06:48;;;;;;;32.30;17.00;;;4.30;99.90;;;;;;4112994;28;20099;-79
2021/01/22 10:08:49;;;;;;;35.65;18.10;;;4.40;99.90;;;;;;4117368;28;20113;-77
2021/01/22 10:10:50;;;;;;;39.60;16.35;;;4.40;99.90;;;;;;4115739;28;20031;-77
2021/01/22 10:12:51;;;;;;;31.88;17.67;;;4.50;99.90;;;;;;4115897;28;20035;-77
2021/01/22 10:14:51;;;;;;;31.75;16.88;;;4.50;99.90;;;;;;4115082;28;20118;-77
2021/01/22 10:16:52;;;;;;;23.08;15.43;;;4.60;99.90;;;;;;4115591;28;20085;-77
2021/01/22 10:18:54;;;;;;;29.42;15.52;;;4.70;99.90;;;;;;4117143;28;20053;-76
2021/01/22 10:20:54;;;;;;;33.97;17.50;;;4.70;99.90;;;;;;4115502;28;20359;-76
2021/01/22 10:22:55;;;;;;;28.65;16.25;;;4.70;99.90;;;;;;4113515;28;20031;-76
2021/01/22 10:24:55;;;;;;;26.05;15.05;;;4.70;99.90;;;;;;4111401;28;20082;-76
2021/01/22 10:26:56;;;;;;;29.55;16.35;;;4.80;99.90;;;;;;4108299;28;20059;-77
2021/01/22 10:28:57;;;;;;;26.50;16.58;;;4.80;99.90;;;;;;4115586;28;20033;-76
2021/01/22 10:30:57;;;;;;;29.95;15.02;;;4.80;99.90;;;;;;4112770;28;20031;-77
2021/01/22 10:32:58;;;;;;;32.90;17.15;;;4.80;99.90;;;;;;4114451;28;20039;-77
2021/01/22 10:34:59;;;;;;;26.00;14.82;;;4.90;99.90;;;;;;4114015;28;20042;-77
2021/01/22 10:36:59;;;;;;;27.17;13.52;;;5.00;99.90;;;;;;4111964;28;20034;-76